sensor_id;sensor_type;location;lat;lon;timestamp;P1;durP1;ratioP1;P2;durP2;ratioP2
47329;SDS011;33060;50.178;7.570;2023-01-04T00:01:50;3.53;;;1.87;;
47329;SDS011;33060;50.178;7.570;2023-01-04T00:04:16;3.70;;;1.63;;
47329;SDS011;33060;50.178;7.570;2023-01-04T00:06:43;8.97;;;2.10;;
47329;SDS011;33060;50.178;7.570;2023-01-04T00:09:09;5.70;;;1.80;;
47329;SDS011;33060;50.178;7.570;2023-01-04T00:11:36;3.03;;;1.67;;
47329;SDS011;33060;50.178;7.570;2023-01-04T00:14:03;5.63;;;2.00;;
47329;SDS011;33060;50.178;7.570;2023-01-04T00:16:29;4.73;;;2.10;;
47329;SDS011;33060;50.178;7.570;2023-01-04T00:18:56;3.63;;;1.80;;
47329;SDS011;33060;50.178;7.570;2023-01-04T00:21:25;5.83;;;2.27;;
47329;SDS011;33060;50.178;7.570;2023-01-04T00:23:54;3.53;;;1.83;;
47329;SDS011;33060;50.178;7.570;2023-01-04T00:26:23;6.97;;;2.10;;
47329;SDS011;33060;50.178;7.570;2023-01-04T00:28:57;2.17;;;1.50;;
47329;SDS011;33060;50.178;7.570;2023-01-04T00:31:26;5.40;;;2.00;;
47329;SDS011;33060;50.178;7.570;2023-01-04T00:33:54;2.73;;;1.70;;
47329;SDS011;33060;50.178;7.570;2023-01-04T00:36:23;6.33;;;1.77;;
47329;SDS011;33060;50.178;7.570;2023-01-04T00:38:50;4.53;;;1.80;;
47329;SDS011;33060;50.178;7.570;2023-01-04T00:41:33;5.47;;;2.00;;
47329;SDS011;33060;50.178;7.570;2023-01-04T00:44:26;4.07;;;1.90;;
47329;SDS011;33060;50.178;7.570;2023-01-04T00:46:54;3.87;;;1.87;;
47329;SDS011;33060;50.178;7.570;2023-01-04T00:49:20;5.90;;;2.50;;
47329;SDS011;33060;50.178;7.570;2023-01-04T00:51:47;5.80;;;2.07;;
47329;SDS011;33060;50.178;7.570;2023-01-04T00:54:14;4.80;;;2.30;;
47329;SDS011;33060;50.178;7.570;2023-01-04T00:56:42;5.27;;;2.90;;
47329;SDS011;33060;50.178;7.570;2023-01-04T00:59:09;6.47;;;2.30;;
47329;SDS011;33060;50.178;7.570;2023-01-04T01:01:38;4.23;;;2.13;;
47329;SDS011;33060;50.178;7.570;2023-01-04T01:04:05;4.40;;;1.90;;
47329;SDS011;33060;50.178;7.570;2023-01-04T01:06:32;3.03;;;1.97;;
47329;SDS011;33060;50.178;7.570;2023-01-04T01:08:59;5.10;;;2.87;;
47329;SDS011;33060;50.178;7.570;2023-01-04T01:11:27;6.50;;;3.40;;
47329;SDS011;33060;50.178;7.570;2023-01-04T01:13:54;5.33;;;3.20;;
47329;SDS011;33060;50.178;7.570;2023-01-04T01:16:22;6.60;;;2.70;;
47329;SDS011;33060;50.178;7.570;2023-01-04T01:19:11;5.07;;;4.00;;
47329;SDS011;33060;50.178;7.570;2023-01-04T01:21:38;5.70;;;3.30;;
47329;SDS011;33060;50.178;7.570;2023-01-04T01:24:05;6.17;;;3.20;;
47329;SDS011;33060;50.178;7.570;2023-01-04T01:26:32;6.10;;;3.70;;
47329;SDS011;33060;50.178;7.570;2023-01-04T01:28:59;5.27;;;2.47;;
47329;SDS011;33060;50.178;7.570;2023-01-04T01:31:26;6.13;;;2.43;;
47329;SDS011;33060;50.178;7.570;2023-01-04T01:33:54;6.63;;;2.93;;
47329;SDS011;33060;50.178;7.570;2023-01-04T01:36:22;5.20;;;2.67;;
47329;SDS011;33060;50.178;7.570;2023-01-04T01:38:51;5.43;;;2.83;;
47329;SDS011;33060;50.178;7.570;2023-01-04T01:41:22;5.17;;;3.67;;
47329;SDS011;33060;50.178;7.570;2023-01-04T01:46:25;8.30;;;5.47;;
47329;SDS011;33060;50.178;7.570;2023-01-04T01:51:56;7.73;;;5.60;;
47329;SDS011;33060;50.178;7.570;2023-01-04T01:54:25;7.77;;;6.80;;
47329;SDS011;33060;50.178;7.570;2023-01-04T01:56:57;8.40;;;5.37;;
47329;SDS011;33060;50.178;7.570;2023-01-04T01:59:26;6.30;;;5.67;;
47329;SDS011;33060;50.178;7.570;2023-01-04T02:01:55;9.83;;;6.00;;
47329;SDS011;33060;50.178;7.570;2023-01-04T02:04:22;6.57;;;4.70;;
47329;SDS011;33060;50.178;7.570;2023-01-04T02:06:50;10.23;;;6.60;;
47329;SDS011;33060;50.178;7.570;2023-01-04T02:09:20;10.00;;;5.97;;
47329;SDS011;33060;50.178;7.570;2023-01-04T02:11:48;8.23;;;5.10;;
47329;SDS011;33060;50.178;7.570;2023-01-04T02:14:15;7.83;;;5.60;;
47329;SDS011;33060;50.178;7.570;2023-01-04T02:17:01;10.23;;;6.37;;
47329;SDS011;33060;50.178;7.570;2023-01-04T02:31:28;6.30;;;3.80;;
47329;SDS011;33060;50.178;7.570;2023-01-04T02:45:53;5.70;;;4.63;;
47329;SDS011;33060;50.178;7.570;2023-01-04T02:48:24;6.00;;;3.93;;
47329;SDS011;33060;50.178;7.570;2023-01-04T02:51:23;6.97;;;4.43;;
47329;SDS011;33060;50.178;7.570;2023-01-04T02:53:57;7.23;;;4.80;;
47329;SDS011;33060;50.178;7.570;2023-01-04T02:56:32;5.40;;;4.80;;
47329;SDS011;33060;50.178;7.570;2023-01-04T03:01:55;10.83;;;4.60;;
47329;SDS011;33060;50.178;7.570;2023-01-04T03:04:57;6.57;;;3.97;;
47329;SDS011;33060;50.178;7.570;2023-01-04T03:10:32;6.37;;;4.00;;
47329;SDS011;33060;50.178;7.570;2023-01-04T03:13:16;6.37;;;4.60;;
47329;SDS011;33060;50.178;7.570;2023-01-04T03:15:45;6.07;;;4.47;;
47329;SDS011;33060;50.178;7.570;2023-01-04T03:18:25;7.33;;;3.97;;
47329;SDS011;33060;50.178;7.570;2023-01-04T03:20:55;5.00;;;3.73;;
47329;SDS011;33060;50.178;7.570;2023-01-04T03:23:25;5.73;;;4.03;;
47329;SDS011;33060;50.178;7.570;2023-01-04T03:26:14;7.40;;;4.07;;
47329;SDS011;33060;50.178;7.570;2023-01-04T03:29:27;6.37;;;4.20;;
47329;SDS011;33060;50.178;7.570;2023-01-04T03:32:17;6.77;;;4.10;;
47329;SDS011;33060;50.178;7.570;2023-01-04T03:35:11;6.47;;;3.23;;
47329;SDS011;33060;50.178;7.570;2023-01-04T03:38:28;5.50;;;3.43;;
47329;SDS011;33060;50.178;7.570;2023-01-04T03:41:15;4.07;;;3.00;;
47329;SDS011;33060;50.178;7.570;2023-01-04T03:44:23;7.67;;;3.10;;
47329;SDS011;33060;50.178;7.570;2023-01-04T03:47:18;5.33;;;3.07;;
47329;SDS011;33060;50.178;7.570;2023-01-04T03:50:10;7.10;;;3.37;;
47329;SDS011;33060;50.178;7.570;2023-01-04T03:52:42;3.93;;;2.70;;
47329;SDS011;33060;50.178;7.570;2023-01-04T03:55:11;4.17;;;2.57;;
47329;SDS011;33060;50.178;7.570;2023-01-04T03:57:39;3.77;;;2.40;;
47329;SDS011;33060;50.178;7.570;2023-01-04T04:00:08;4.23;;;1.83;;
47329;SDS011;33060;50.178;7.570;2023-01-04T04:02:40;4.13;;;1.90;;
47329;SDS011;33060;50.178;7.570;2023-01-04T04:05:07;3.90;;;2.07;;
47329;SDS011;33060;50.178;7.570;2023-01-04T04:07:58;4.20;;;1.80;;
47329;SDS011;33060;50.178;7.570;2023-01-04T04:10:43;3.50;;;1.43;;
47329;SDS011;33060;50.178;7.570;2023-01-04T04:13:09;4.40;;;1.70;;
47329;SDS011;33060;50.178;7.570;2023-01-04T04:15:36;6.00;;;1.90;;
47329;SDS011;33060;50.178;7.570;2023-01-04T04:18:03;2.67;;;1.37;;
47329;SDS011;33060;50.178;7.570;2023-01-04T04:20:29;3.97;;;1.70;;
47329;SDS011;33060;50.178;7.570;2023-01-04T04:22:56;3.20;;;1.60;;
47329;SDS011;33060;50.178;7.570;2023-01-04T04:25:24;4.80;;;1.70;;
47329;SDS011;33060;50.178;7.570;2023-01-04T04:27:51;3.20;;;1.60;;
47329;SDS011;33060;50.178;7.570;2023-01-04T04:30:17;3.70;;;1.60;;
47329;SDS011;33060;50.178;7.570;2023-01-04T04:32:44;5.63;;;1.87;;
47329;SDS011;33060;50.178;7.570;2023-01-04T04:35:11;2.70;;;1.30;;
47329;SDS011;33060;50.178;7.570;2023-01-04T04:37:37;4.57;;;1.67;;
47329;SDS011;33060;50.178;7.570;2023-01-04T04:40:04;2.80;;;1.63;;
47329;SDS011;33060;50.178;7.570;2023-01-04T04:42:31;2.97;;;1.60;;
47329;SDS011;33060;50.178;7.570;2023-01-04T04:44:58;4.93;;;1.60;;
47329;SDS011;33060;50.178;7.570;2023-01-04T04:47:25;3.23;;;1.60;;
47329;SDS011;33060;50.178;7.570;2023-01-04T04:49:51;4.80;;;1.40;;
47329;SDS011;33060;50.178;7.570;2023-01-04T04:52:18;2.93;;;1.63;;
47329;SDS011;33060;50.178;7.570;2023-01-04T04:54:44;2.37;;;1.60;;
47329;SDS011;33060;50.178;7.570;2023-01-04T04:57:11;2.77;;;1.50;;
47329;SDS011;33060;50.178;7.570;2023-01-04T04:59:37;3.00;;;1.60;;
47329;SDS011;33060;50.178;7.570;2023-01-04T05:02:04;3.73;;;1.80;;
47329;SDS011;33060;50.178;7.570;2023-01-04T05:04:31;3.50;;;1.70;;
47329;SDS011;33060;50.178;7.570;2023-01-04T05:06:58;4.33;;;1.80;;
47329;SDS011;33060;50.178;7.570;2023-01-04T05:09:24;3.37;;;1.77;;
47329;SDS011;33060;50.178;7.570;2023-01-04T05:11:51;2.90;;;1.80;;
47329;SDS011;33060;50.178;7.570;2023-01-04T05:14:36;2.27;;;1.40;;
47329;SDS011;33060;50.178;7.570;2023-01-04T05:17:03;3.00;;;1.70;;
47329;SDS011;33060;50.178;7.570;2023-01-04T05:19:30;2.83;;;1.57;;
47329;SDS011;33060;50.178;7.570;2023-01-04T05:21:56;3.63;;;1.80;;
47329;SDS011;33060;50.178;7.570;2023-01-04T05:24:23;3.83;;;1.40;;
47329;SDS011;33060;50.178;7.570;2023-01-04T05:26:49;2.73;;;1.40;;
47329;SDS011;33060;50.178;7.570;2023-01-04T05:29:16;3.00;;;1.30;;
47329;SDS011;33060;50.178;7.570;2023-01-04T05:32:01;4.60;;;1.50;;
47329;SDS011;33060;50.178;7.570;2023-01-04T05:34:28;1.70;;;1.23;;
47329;SDS011;33060;50.178;7.570;2023-01-04T05:36:54;4.93;;;1.17;;
47329;SDS011;33060;50.178;7.570;2023-01-04T05:39:21;3.00;;;1.10;;
47329;SDS011;33060;50.178;7.570;2023-01-04T05:41:48;2.53;;;1.20;;
47329;SDS011;33060;50.178;7.570;2023-01-04T05:44:33;3.03;;;1.40;;
47329;SDS011;33060;50.178;7.570;2023-01-04T05:46:59;3.63;;;1.20;;
47329;SDS011;33060;50.178;7.570;2023-01-04T05:49:26;2.33;;;1.20;;
47329;SDS011;33060;50.178;7.570;2023-01-04T05:51:52;3.60;;;1.30;;
47329;SDS011;33060;50.178;7.570;2023-01-04T05:54:19;5.33;;;1.40;;
47329;SDS011;33060;50.178;7.570;2023-01-04T05:56:47;3.77;;;1.37;;
47329;SDS011;33060;50.178;7.570;2023-01-04T05:59:13;4.20;;;1.43;;
47329;SDS011;33060;50.178;7.570;2023-01-04T06:01:41;1.57;;;1.03;;
47329;SDS011;33060;50.178;7.570;2023-01-04T06:04:08;3.63;;;1.40;;
47329;SDS011;33060;50.178;7.570;2023-01-04T06:06:34;1.90;;;1.00;;
47329;SDS011;33060;50.178;7.570;2023-01-04T06:09:01;3.27;;;1.10;;
47329;SDS011;33060;50.178;7.570;2023-01-04T06:11:28;2.97;;;1.40;;
47329;SDS011;33060;50.178;7.570;2023-01-04T06:13:54;1.53;;;1.30;;
47329;SDS011;33060;50.178;7.570;2023-01-04T06:16:21;2.63;;;1.07;;
47329;SDS011;33060;50.178;7.570;2023-01-04T06:18:47;3.00;;;1.20;;
47329;SDS011;33060;50.178;7.570;2023-01-04T06:21:14;2.90;;;2.30;;
47329;SDS011;33060;50.178;7.570;2023-01-04T06:23:41;2.80;;;2.00;;
47329;SDS011;33060;50.178;7.570;2023-01-04T06:26:07;1.93;;;1.30;;
47329;SDS011;33060;50.178;7.570;2023-01-04T06:28:34;3.80;;;1.30;;
47329;SDS011;33060;50.178;7.570;2023-01-04T06:31:07;1.73;;;1.00;;
47329;SDS011;33060;50.178;7.570;2023-01-04T06:33:35;1.77;;;1.00;;
47329;SDS011;33060;50.178;7.570;2023-01-04T06:36:01;1.23;;;0.77;;
47329;SDS011;33060;50.178;7.570;2023-01-04T06:38:29;2.03;;;1.00;;
47329;SDS011;33060;50.178;7.570;2023-01-04T06:40:55;1.87;;;1.00;;
47329;SDS011;33060;50.178;7.570;2023-01-04T06:43:22;1.60;;;0.80;;
47329;SDS011;33060;50.178;7.570;2023-01-04T06:45:49;1.90;;;1.00;;
47329;SDS011;33060;50.178;7.570;2023-01-04T06:48:15;1.60;;;0.83;;
47329;SDS011;33060;50.178;7.570;2023-01-04T06:50:43;0.80;;;0.67;;
47329;SDS011;33060;50.178;7.570;2023-01-04T06:53:10;1.30;;;0.60;;
47329;SDS011;33060;50.178;7.570;2023-01-04T06:55:37;2.77;;;0.90;;
47329;SDS011;33060;50.178;7.570;2023-01-04T06:58:03;2.80;;;0.90;;
47329;SDS011;33060;50.178;7.570;2023-01-04T07:00:30;0.87;;;0.63;;
47329;SDS011;33060;50.178;7.570;2023-01-04T07:02:57;0.93;;;0.70;;
47329;SDS011;33060;50.178;7.570;2023-01-04T07:05:41;1.70;;;0.70;;
47329;SDS011;33060;50.178;7.570;2023-01-04T07:08:07;1.00;;;0.80;;
47329;SDS011;33060;50.178;7.570;2023-01-04T07:10:34;1.00;;;0.73;;
47329;SDS011;33060;50.178;7.570;2023-01-04T07:13:01;1.33;;;0.80;;
47329;SDS011;33060;50.178;7.570;2023-01-04T07:15:28;1.73;;;0.70;;
47329;SDS011;33060;50.178;7.570;2023-01-04T07:18:05;1.00;;;0.80;;
47329;SDS011;33060;50.178;7.570;2023-01-04T07:20:33;1.93;;;1.03;;
47329;SDS011;33060;50.178;7.570;2023-01-04T07:23:00;1.70;;;0.80;;
47329;SDS011;33060;50.178;7.570;2023-01-04T07:25:27;2.30;;;1.83;;
47329;SDS011;33060;50.178;7.570;2023-01-04T07:27:53;2.67;;;1.30;;
47329;SDS011;33060;50.178;7.570;2023-01-04T07:30:21;2.03;;;1.50;;
47329;SDS011;33060;50.178;7.570;2023-01-04T07:32:52;1.00;;;0.90;;
47329;SDS011;33060;50.178;7.570;2023-01-04T07:35:19;1.50;;;0.73;;
47329;SDS011;33060;50.178;7.570;2023-01-04T07:37:47;2.63;;;1.17;;
47329;SDS011;33060;50.178;7.570;2023-01-04T07:40:22;1.30;;;0.80;;
47329;SDS011;33060;50.178;7.570;2023-01-04T07:42:53;1.80;;;0.87;;
47329;SDS011;33060;50.178;7.570;2023-01-04T07:45:22;1.60;;;1.13;;
47329;SDS011;33060;50.178;7.570;2023-01-04T07:47:48;1.67;;;1.10;;
47329;SDS011;33060;50.178;7.570;2023-01-04T07:50:15;2.00;;;1.00;;
47329;SDS011;33060;50.178;7.570;2023-01-04T07:52:42;1.13;;;0.77;;
47329;SDS011;33060;50.178;7.570;2023-01-04T07:55:08;0.70;;;0.60;;
47329;SDS011;33060;50.178;7.570;2023-01-04T07:57:35;0.60;;;0.50;;
47329;SDS011;33060;50.178;7.570;2023-01-04T08:00:02;2.17;;;1.37;;
47329;SDS011;33060;50.178;7.570;2023-01-04T08:02:37;1.53;;;1.07;;
47329;SDS011;33060;50.178;7.570;2023-01-04T08:05:04;2.47;;;1.50;;
47329;SDS011;33060;50.178;7.570;2023-01-04T08:07:31;2.00;;;1.50;;
47329;SDS011;33060;50.178;7.570;2023-01-04T08:09:58;0.83;;;0.50;;
47329;SDS011;33060;50.178;7.570;2023-01-04T08:12:24;1.63;;;1.03;;
47329;SDS011;33060;50.178;7.570;2023-01-04T08:14:51;2.07;;;1.40;;
47329;SDS011;33060;50.178;7.570;2023-01-04T08:17:18;1.60;;;0.80;;
47329;SDS011;33060;50.178;7.570;2023-01-04T08:19:44;1.33;;;0.90;;
47329;SDS011;33060;50.178;7.570;2023-01-04T08:22:12;1.30;;;0.60;;
47329;SDS011;33060;50.178;7.570;2023-01-04T08:24:39;2.60;;;1.50;;
47329;SDS011;33060;50.178;7.570;2023-01-04T08:27:06;2.70;;;0.97;;
47329;SDS011;33060;50.178;7.570;2023-01-04T08:29:33;1.10;;;0.70;;
47329;SDS011;33060;50.178;7.570;2023-01-04T08:32:00;1.40;;;0.80;;
47329;SDS011;33060;50.178;7.570;2023-01-04T08:34:27;1.83;;;0.90;;
47329;SDS011;33060;50.178;7.570;2023-01-04T08:36:55;1.20;;;1.00;;
47329;SDS011;33060;50.178;7.570;2023-01-04T08:39:21;1.47;;;0.80;;
47329;SDS011;33060;50.178;7.570;2023-01-04T08:41:48;0.60;;;0.60;;
47329;SDS011;33060;50.178;7.570;2023-01-04T08:44:38;1.50;;;0.70;;
47329;SDS011;33060;50.178;7.570;2023-01-04T08:47:05;1.90;;;1.03;;
47329;SDS011;33060;50.178;7.570;2023-01-04T08:49:32;1.10;;;0.97;;
47329;SDS011;33060;50.178;7.570;2023-01-04T08:51:59;1.27;;;0.90;;
47329;SDS011;33060;50.178;7.570;2023-01-04T08:54:25;1.40;;;0.87;;
47329;SDS011;33060;50.178;7.570;2023-01-04T08:56:52;1.03;;;0.60;;
47329;SDS011;33060;50.178;7.570;2023-01-04T08:59:19;1.83;;;0.80;;
47329;SDS011;33060;50.178;7.570;2023-01-04T09:01:45;1.27;;;0.70;;
47329;SDS011;33060;50.178;7.570;2023-01-04T09:04:12;1.03;;;0.70;;
47329;SDS011;33060;50.178;7.570;2023-01-04T09:06:39;1.33;;;0.80;;
47329;SDS011;33060;50.178;7.570;2023-01-04T09:09:06;1.50;;;0.90;;
47329;SDS011;33060;50.178;7.570;2023-01-04T09:11:32;1.37;;;0.90;;
47329;SDS011;33060;50.178;7.570;2023-01-04T09:14:00;3.03;;;0.80;;
47329;SDS011;33060;50.178;7.570;2023-01-04T09:16:34;1.10;;;0.50;;
47329;SDS011;33060;50.178;7.570;2023-01-04T09:19:02;1.00;;;0.77;;
47329;SDS011;33060;50.178;7.570;2023-01-04T09:21:29;0.90;;;0.60;;
47329;SDS011;33060;50.178;7.570;2023-01-04T09:23:56;2.50;;;0.60;;
47329;SDS011;33060;50.178;7.570;2023-01-04T09:26:24;1.57;;;0.90;;
47329;SDS011;33060;50.178;7.570;2023-01-04T09:28:51;1.20;;;0.70;;
47329;SDS011;33060;50.178;7.570;2023-01-04T09:31:20;2.03;;;1.00;;
47329;SDS011;33060;50.178;7.570;2023-01-04T09:33:48;1.40;;;0.90;;
47329;SDS011;33060;50.178;7.570;2023-01-04T09:36:35;1.53;;;0.87;;
47329;SDS011;33060;50.178;7.570;2023-01-04T09:39:02;1.20;;;0.80;;
47329;SDS011;33060;50.178;7.570;2023-01-04T09:41:30;1.33;;;0.60;;
47329;SDS011;33060;50.178;7.570;2023-01-04T09:44:02;1.63;;;0.70;;
47329;SDS011;33060;50.178;7.570;2023-01-04T09:46:38;1.97;;;0.90;;
47329;SDS011;33060;50.178;7.570;2023-01-04T09:49:27;1.10;;;0.90;;
47329;SDS011;33060;50.178;7.570;2023-01-04T09:52:02;1.10;;;0.70;;
47329;SDS011;33060;50.178;7.570;2023-01-04T09:57:29;1.20;;;0.77;;
47329;SDS011;33060;50.178;7.570;2023-01-04T10:00:04;3.33;;;1.00;;
47329;SDS011;33060;50.178;7.570;2023-01-04T10:02:42;1.40;;;0.70;;
47329;SDS011;33060;50.178;7.570;2023-01-04T10:05:17;1.23;;;0.77;;
47329;SDS011;33060;50.178;7.570;2023-01-04T10:07:47;1.40;;;0.60;;
47329;SDS011;33060;50.178;7.570;2023-01-04T10:10:17;1.17;;;0.50;;
47329;SDS011;33060;50.178;7.570;2023-01-04T10:13:09;0.93;;;0.60;;
47329;SDS011;33060;50.178;7.570;2023-01-04T10:22:40;1.03;;;0.60;;
47329;SDS011;33060;50.178;7.570;2023-01-04T10:25:22;0.93;;;0.50;;
47329;SDS011;33060;50.178;7.570;2023-01-04T10:28:14;2.40;;;0.50;;
47329;SDS011;33060;50.178;7.570;2023-01-04T10:34:43;0.68;;;0.50;;
47329;SDS011;33060;50.178;7.570;2023-01-04T10:36:56;1.63;;;0.82;;
47329;SDS011;33060;50.178;7.570;2023-01-04T10:39:30;1.35;;;0.90;;
47329;SDS011;33060;50.178;7.570;2023-01-04T10:41:59;1.27;;;0.93;;
47329;SDS011;33060;50.178;7.570;2023-01-04T10:47:24;1.10;;;0.90;;
47329;SDS011;33060;50.178;7.570;2023-01-04T10:49:57;1.58;;;0.73;;
47329;SDS011;33060;50.178;7.570;2023-01-04T10:52:29;1.90;;;1.05;;
47329;SDS011;33060;50.178;7.570;2023-01-04T10:55:44;0.88;;;0.60;;
47329;SDS011;33060;50.178;7.570;2023-01-04T11:01:27;1.80;;;0.67;;
47329;SDS011;33060;50.178;7.570;2023-01-04T11:07:01;1.40;;;0.70;;
47329;SDS011;33060;50.178;7.570;2023-01-04T11:09:28;1.30;;;0.77;;
47329;SDS011;33060;50.178;7.570;2023-01-04T11:12:05;1.50;;;0.80;;
47329;SDS011;33060;50.178;7.570;2023-01-04T11:14:34;2.70;;;1.10;;
47329;SDS011;33060;50.178;7.570;2023-01-04T11:17:03;1.83;;;1.00;;
47329;SDS011;33060;50.178;7.570;2023-01-04T11:19:31;1.73;;;0.90;;
47329;SDS011;33060;50.178;7.570;2023-01-04T11:22:00;1.80;;;1.03;;
47329;SDS011;33060;50.178;7.570;2023-01-04T11:24:31;1.40;;;0.90;;
47329;SDS011;33060;50.178;7.570;2023-01-04T11:27:04;1.03;;;0.80;;
47329;SDS011;33060;50.178;7.570;2023-01-04T11:29:34;1.97;;;0.90;;
47329;SDS011;33060;50.178;7.570;2023-01-04T11:35:07;4.10;;;2.20;;
47329;SDS011;33060;50.178;7.570;2023-01-04T11:37:35;2.50;;;1.73;;
47329;SDS011;33060;50.178;7.570;2023-01-04T11:42:42;2.65;;;1.10;;
47329;SDS011;33060;50.178;7.570;2023-01-04T11:45:20;1.92;;;1.10;;
47329;SDS011;33060;50.178;7.570;2023-01-04T11:47:56;2.00;;;0.93;;
47329;SDS011;33060;50.178;7.570;2023-01-04T11:50:35;1.80;;;1.27;;
47329;SDS011;33060;50.178;7.570;2023-01-04T11:53:21;3.37;;;1.20;;
47329;SDS011;33060;50.178;7.570;2023-01-04T11:58:41;2.35;;;1.10;;
47329;SDS011;33060;50.178;7.570;2023-01-04T12:01:22;2.75;;;1.00;;
47329;SDS011;33060;50.178;7.570;2023-01-04T12:03:50;1.40;;;0.90;;
47329;SDS011;33060;50.178;7.570;2023-01-04T12:06:21;1.37;;;0.80;;
47329;SDS011;33060;50.178;7.570;2023-01-04T12:08:56;1.30;;;0.67;;
47329;SDS011;33060;50.178;7.570;2023-01-04T12:11:29;0.80;;;0.80;;
47329;SDS011;33060;50.178;7.570;2023-01-04T12:14:00;1.63;;;0.90;;
47329;SDS011;33060;50.178;7.570;2023-01-04T12:16:47;1.03;;;0.80;;
47329;SDS011;33060;50.178;7.570;2023-01-04T12:19:25;1.70;;;0.88;;
47329;SDS011;33060;50.178;7.570;2023-01-04T12:21:53;1.55;;;0.90;;
47329;SDS011;33060;50.178;7.570;2023-01-04T12:24:26;1.27;;;0.90;;
47329;SDS011;33060;50.178;7.570;2023-01-04T12:26:56;1.15;;;0.80;;
47329;SDS011;33060;50.178;7.570;2023-01-04T12:29:32;1.30;;;0.88;;
47329;SDS011;33060;50.178;7.570;2023-01-04T12:34:53;2.35;;;0.93;;
47329;SDS011;33060;50.178;7.570;2023-01-04T12:40:22;1.15;;;0.70;;
47329;SDS011;33060;50.178;7.570;2023-01-04T12:45:41;1.10;;;0.70;;
47329;SDS011;33060;50.178;7.570;2023-01-04T12:51:17;1.73;;;0.70;;
47329;SDS011;33060;50.178;7.570;2023-01-04T12:54:01;0.93;;;0.65;;
47329;SDS011;33060;50.178;7.570;2023-01-04T12:59:37;0.83;;;0.50;;
47329;SDS011;33060;50.178;7.570;2023-01-04T13:02:18;0.45;;;0.43;;
47329;SDS011;33060;50.178;7.570;2023-01-04T13:04:48;0.60;;;0.50;;
47329;SDS011;33060;50.178;7.570;2023-01-04T13:08:09;1.10;;;0.43;;
47329;SDS011;33060;50.178;7.570;2023-01-04T13:10:42;1.38;;;0.60;;
47329;SDS011;33060;50.178;7.570;2023-01-04T13:16:23;0.55;;;0.50;;
47329;SDS011;33060;50.178;7.570;2023-01-04T13:19:00;1.27;;;0.60;;
47329;SDS011;33060;50.178;7.570;2023-01-04T13:21:38;0.93;;;0.55;;
47329;SDS011;33060;50.178;7.570;2023-01-04T13:27:12;0.65;;;0.57;;
47329;SDS011;33060;50.178;7.570;2023-01-04T13:29:44;1.42;;;0.50;;
47329;SDS011;33060;50.178;7.570;2023-01-04T13:34:40;1.00;;;0.70;;
47329;SDS011;33060;50.178;7.570;2023-01-04T13:37:17;0.52;;;0.50;;
47329;SDS011;33060;50.178;7.570;2023-01-04T13:42:46;2.05;;;0.60;;
47329;SDS011;33060;50.178;7.570;2023-01-04T13:47:56;1.08;;;0.50;;
47329;SDS011;33060;50.178;7.570;2023-01-04T13:50:42;1.00;;;0.60;;
47329;SDS011;33060;50.178;7.570;2023-01-04T13:53:17;0.70;;;0.50;;
47329;SDS011;33060;50.178;7.570;2023-01-04T13:55:50;0.52;;;0.40;;
47329;SDS011;33060;50.178;7.570;2023-01-04T13:58:32;1.20;;;0.47;;
47329;SDS011;33060;50.178;7.570;2023-01-04T14:01:04;0.65;;;0.40;;
47329;SDS011;33060;50.178;7.570;2023-01-04T14:03:54;0.75;;;0.57;;
47329;SDS011;33060;50.178;7.570;2023-01-04T14:06:25;0.77;;;0.40;;
47329;SDS011;33060;50.178;7.570;2023-01-04T14:14:54;0.68;;;0.40;;
47329;SDS011;33060;50.178;7.570;2023-01-04T14:17:29;0.50;;;0.47;;
47329;SDS011;33060;50.178;7.570;2023-01-04T14:20:01;0.77;;;0.40;;
47329;SDS011;33060;50.178;7.570;2023-01-04T14:25:35;0.93;;;0.45;;
47329;SDS011;33060;50.178;7.570;2023-01-04T14:30:56;1.20;;;0.55;;
47329;SDS011;33060;50.178;7.570;2023-01-04T14:33:45;0.50;;;0.40;;
47329;SDS011;33060;50.178;7.570;2023-01-04T14:38:51;0.63;;;0.47;;
47329;SDS011;33060;50.178;7.570;2023-01-04T14:46:21;0.70;;;0.40;;
47329;SDS011;33060;50.178;7.570;2023-01-04T14:48:48;0.70;;;0.60;;
47329;SDS011;33060;50.178;7.570;2023-01-04T14:51:16;0.40;;;0.40;;
47329;SDS011;33060;50.178;7.570;2023-01-04T14:53:45;0.47;;;0.40;;
47329;SDS011;33060;50.178;7.570;2023-01-04T14:56:12;0.93;;;0.67;;
47329;SDS011;33060;50.178;7.570;2023-01-04T14:58:40;0.63;;;0.47;;
47329;SDS011;33060;50.178;7.570;2023-01-04T15:01:08;0.50;;;0.33;;
47329;SDS011;33060;50.178;7.570;2023-01-04T15:03:36;1.33;;;0.70;;
47329;SDS011;33060;50.178;7.570;2023-01-04T15:06:03;1.23;;;0.60;;
47329;SDS011;33060;50.178;7.570;2023-01-04T15:08:31;1.10;;;0.55;;
47329;SDS011;33060;50.178;7.570;2023-01-04T15:10:58;0.77;;;0.50;;
47329;SDS011;33060;50.178;7.570;2023-01-04T15:13:25;0.70;;;0.45;;
47329;SDS011;33060;50.178;7.570;2023-01-04T15:15:52;1.83;;;0.70;;
47329;SDS011;33060;50.178;7.570;2023-01-04T15:18:19;0.70;;;0.60;;
47329;SDS011;33060;50.178;7.570;2023-01-04T15:20:45;1.75;;;0.70;;
47329;SDS011;33060;50.178;7.570;2023-01-04T15:23:12;1.20;;;0.63;;
47329;SDS011;33060;50.178;7.570;2023-01-04T15:25:39;1.53;;;0.80;;
47329;SDS011;33060;50.178;7.570;2023-01-04T15:28:06;1.30;;;0.93;;
47329;SDS011;33060;50.178;7.570;2023-01-04T15:30:33;1.40;;;0.77;;
47329;SDS011;33060;50.178;7.570;2023-01-04T15:33:00;1.10;;;0.90;;
47329;SDS011;33060;50.178;7.570;2023-01-04T15:35:26;1.35;;;0.80;;
47329;SDS011;33060;50.178;7.570;2023-01-04T15:37:53;2.37;;;1.50;;
47329;SDS011;33060;50.178;7.570;2023-01-04T15:40:20;1.40;;;0.80;;
47329;SDS011;33060;50.178;7.570;2023-01-04T15:42:46;1.95;;;1.00;;
47329;SDS011;33060;50.178;7.570;2023-01-04T15:45:34;1.17;;;0.80;;
47329;SDS011;33060;50.178;7.570;2023-01-04T15:48:03;0.55;;;0.55;;
47329;SDS011;33060;50.178;7.570;2023-01-04T15:50:34;1.55;;;1.15;;
47329;SDS011;33060;50.178;7.570;2023-01-04T15:53:04;0.93;;;0.63;;
47329;SDS011;33060;50.178;7.570;2023-01-04T15:55:33;0.73;;;0.73;;
47329;SDS011;33060;50.178;7.570;2023-01-04T15:58:05;1.60;;;0.93;;
47329;SDS011;33060;50.178;7.570;2023-01-04T16:00:31;1.30;;;1.02;;
47329;SDS011;33060;50.178;7.570;2023-01-04T16:02:58;0.77;;;0.60;;
47329;SDS011;33060;50.178;7.570;2023-01-04T16:05:25;1.90;;;0.80;;
47329;SDS011;33060;50.178;7.570;2023-01-04T16:07:51;1.70;;;1.30;;
47329;SDS011;33060;50.178;7.570;2023-01-04T16:10:18;1.47;;;0.93;;
47329;SDS011;33060;50.178;7.570;2023-01-04T16:12:45;1.10;;;0.77;;
47329;SDS011;33060;50.178;7.570;2023-01-04T16:15:20;1.13;;;0.77;;
47329;SDS011;33060;50.178;7.570;2023-01-04T16:17:47;1.13;;;0.60;;
47329;SDS011;33060;50.178;7.570;2023-01-04T16:20:15;1.45;;;0.65;;
47329;SDS011;33060;50.178;7.570;2023-01-04T16:22:43;0.60;;;0.50;;
47329;SDS011;33060;50.178;7.570;2023-01-04T16:25:10;0.82;;;0.70;;
47329;SDS011;33060;50.178;7.570;2023-01-04T16:27:38;1.92;;;0.73;;
47329;SDS011;33060;50.178;7.570;2023-01-04T16:30:10;0.77;;;0.68;;
47329;SDS011;33060;50.178;7.570;2023-01-04T16:32:39;1.07;;;0.60;;
47329;SDS011;33060;50.178;7.570;2023-01-04T16:35:08;1.13;;;0.83;;
47329;SDS011;33060;50.178;7.570;2023-01-04T16:37:36;1.07;;;0.70;;
47329;SDS011;33060;50.178;7.570;2023-01-04T16:40:03;0.60;;;0.50;;
47329;SDS011;33060;50.178;7.570;2023-01-04T16:42:33;0.98;;;0.70;;
47329;SDS011;33060;50.178;7.570;2023-01-04T16:45:00;0.40;;;0.40;;
47329;SDS011;33060;50.178;7.570;2023-01-04T16:47:27;0.63;;;0.47;;
47329;SDS011;33060;50.178;7.570;2023-01-04T16:49:54;0.97;;;0.50;;
47329;SDS011;33060;50.178;7.570;2023-01-04T16:52:20;1.60;;;0.97;;
47329;SDS011;33060;50.178;7.570;2023-01-04T16:54:47;1.02;;;0.90;;
47329;SDS011;33060;50.178;7.570;2023-01-04T16:57:14;1.50;;;0.90;;
47329;SDS011;33060;50.178;7.570;2023-01-04T16:59:41;1.60;;;0.73;;
47329;SDS011;33060;50.178;7.570;2023-01-04T17:02:08;0.80;;;0.70;;
47329;SDS011;33060;50.178;7.570;2023-01-04T17:04:36;0.90;;;0.60;;
47329;SDS011;33060;50.178;7.570;2023-01-04T17:07:03;0.40;;;0.40;;